createdAt,value
2022-11-15T00:00:14.589Z,101085.83
2022-11-15T00:01:18.949Z,101090.13
2022-11-15T00:02:21.153Z,101085.81
2022-11-15T00:03:30.055Z,101090.15
2022-11-15T00:04:32.204Z,101084.85
2022-11-15T00:05:36.857Z,101083.14
2022-11-15T00:06:38.868Z,101079.65
2022-11-15T00:07:55.168Z,101076.99
2022-11-15T00:08:44.604Z,101075.27
2022-11-15T00:09:47.478Z,101074.47
2022-11-15T00:12:09.560Z,101072.66
2022-11-15T00:13:14.323Z,101073.61
2022-11-15T00:14:16.268Z,101068.35
2022-11-15T00:15:18.148Z,101071.81
2022-11-15T00:16:20.098Z,101066.61
2022-11-15T00:17:21.977Z,101069.20
2022-11-15T00:18:24.368Z,101069.24
2022-11-15T00:19:27.203Z,101065.75
2022-11-15T00:20:29.567Z,101067.56
2022-11-15T00:21:32.301Z,101059.73
2022-11-15T00:22:34.918Z,101061.47
2022-11-15T00:23:37.241Z,101055.40
2022-11-15T00:24:39.138Z,101054.48
2022-11-15T00:25:41.390Z,101061.47
2022-11-15T00:26:44.962Z,101054.45
2022-11-15T00:27:47.856Z,101044.88
2022-11-15T00:28:52.744Z,101051.00
2022-11-15T00:29:54.700Z,101043.94
2022-11-15T00:31:01.734Z,101044.02
2022-11-15T00:32:03.686Z,101035.21
2022-11-15T00:33:06.555Z,101030.86
2022-11-15T00:34:10.265Z,101030.91
2022-11-15T00:35:12.215Z,101037.03
2022-11-15T00:36:14.280Z,101026.55
2022-11-15T00:37:16.139Z,101026.50
2022-11-15T00:38:17.981Z,101021.31
2022-11-15T00:39:19.893Z,101026.53
2022-11-15T00:40:21.849Z,101026.55
2022-11-15T00:41:23.717Z,101023.94
2022-11-15T00:42:25.583Z,101023.02
2022-11-15T00:43:27.715Z,101022.22
2022-11-15T00:44:29.947Z,101019.58
2022-11-15T00:45:31.855Z,101020.42
2022-11-15T00:46:33.925Z,101025.73
2022-11-15T00:47:36.380Z,101023.95
2022-11-15T00:48:38.256Z,101017.06
2022-11-15T00:49:40.249Z,101023.13
2022-11-15T00:50:42.349Z,101017.84
2022-11-15T00:51:45.774Z,101024.73
2022-11-15T00:52:47.721Z,101023.06
2022-11-15T00:53:50.522Z,101024.86
2022-11-15T00:54:52.537Z,101030.89
2022-11-15T00:55:55.318Z,101021.31
2022-11-15T00:56:57.456Z,101031.75
2022-11-15T00:58:00.736Z,101024.80
2022-11-15T00:59:03.509Z,100986.73
2022-11-15T01:00:08.107Z,101021.35
2022-11-15T01:01:14.069Z,101026.59
2022-11-15T01:02:16.997Z,101016.87
2022-11-15T01:03:19.745Z,101010.80
2022-11-15T01:04:22.644Z,101010.84
2022-11-15T01:05:24.985Z,101016.08
2022-11-15T01:06:27.345Z,101019.45
2022-11-15T01:07:29.542Z,101016.81
2022-11-15T01:08:32.441Z,101009.91
2022-11-15T01:09:35.988Z,101007.30
2022-11-15T01:10:38.236Z,101008.16
2022-11-15T01:11:42.126Z,100999.42
2022-11-15T01:12:44.474Z,101002.03
2022-11-15T01:13:46.669Z,101002.06
2022-11-15T01:14:50.120Z,100997.64
2022-11-15T01:15:52.226Z,100992.38
2022-11-15T01:16:54.941Z,100992.44
2022-11-15T01:17:56.867Z,100993.26
2022-11-15T01:18:59.502Z,100989.84
2022-11-15T01:20:01.829Z,100985.53
2022-11-15T01:21:09.632Z,100989.84
2022-11-15T01:22:11.867Z,100984.64
2022-11-15T01:23:15.992Z,100984.62
2022-11-15T01:24:18.903Z,100984.62
2022-11-15T01:25:21.610Z,100985.42
2022-11-15T01:26:25.007Z,100977.72
2022-11-15T01:27:28.004Z,100982.05
2022-11-15T01:28:32.038Z,100981.19
2022-11-15T01:29:35.386Z,100972.61
2022-11-15T01:30:37.635Z,100978.67
2022-11-15T01:31:39.795Z,100982.14
2022-11-15T01:32:41.864Z,100976.86
2022-11-15T01:33:44.735Z,100982.10
2022-11-15T01:34:46.901Z,100979.48
2022-11-15T01:35:49.145Z,100977.70
2022-11-15T01:36:51.944Z,100970.67
2022-11-15T01:37:54.106Z,100975.91
2022-11-15T01:39:00.111Z,100975.95
2022-11-15T01:40:03.207Z,100964.60
2022-11-15T01:41:09.113Z,100965.44
2022-11-15T01:42:14.888Z,100958.47
2022-11-15T01:43:26.484Z,100956.74
2022-11-15T01:44:50.011Z,100952.36
2022-11-15T01:45:55.914Z,100953.17
2022-11-15T01:47:01.199Z,100955.83
2022-11-15T01:48:05.797Z,100962.00
2022-11-15T01:49:14.133Z,100952.41
2022-11-15T01:50:20.400Z,100954.14
2022-11-15T01:51:25.643Z,100954.95
2022-11-15T01:52:30.811Z,100949.77
2022-11-15T01:53:36.271Z,100960.23
2022-11-15T01:54:38.913Z,100960.17
2022-11-15T01:55:41.360Z,100963.71
2022-11-15T01:56:47.268Z,100949.72
2022-11-15T01:57:53.110Z,100954.92
2022-11-15T01:58:58.658Z,100948.84
2022-11-15T02:00:03.393Z,100947.12
2022-11-15T02:01:05.762Z,100947.98
2022-11-15T02:02:09.069Z,100941.91
2022-11-15T02:03:11.967Z,100941.91
2022-11-15T02:04:17.363Z,100948.82
2022-11-15T02:05:19.676Z,100948.92
2022-11-15T02:06:23.384Z,100944.52
2022-11-15T02:07:26.386Z,100941.86
2022-11-15T02:08:29.282Z,100942.67
2022-11-15T02:09:32.084Z,100938.39
2022-11-15T02:10:35.075Z,100930.59
2022-11-15T02:11:37.740Z,100934.06
2022-11-15T02:12:40.893Z,100936.67
2022-11-15T02:13:45.214Z,100935.83
2022-11-15T02:14:54.011Z,100930.57
2022-11-15T02:16:03.537Z,100928.81
2022-11-15T02:17:12.473Z,100934.00
2022-11-15T02:18:37.935Z,100932.22
2022-11-15T02:19:49.567Z,100930.51
2022-11-15T02:20:58.453Z,100927.91
2022-11-15T02:22:31.831Z,100932.30
2022-11-15T02:24:56.708Z,100928.75
2022-11-15T02:26:14.051Z,100933.31
2022-11-15T02:27:44.542Z,100934.17
2022-11-15T02:29:07.480Z,100925.40
2022-11-15T02:30:47.390Z,100914.97
2022-11-15T02:32:08.076Z,100925.42
2022-11-15T02:33:16.821Z,100928.84
2022-11-15T02:34:37.647Z,100918.37
2022-11-15T02:37:13.986Z,100922.51
2022-11-15T02:38:25.568Z,100920.16
2022-11-15T02:39:29.217Z,100923.61
2022-11-15T02:40:41.062Z,100923.56
2022-11-15T02:43:11.483Z,100926.11
2022-11-15T02:44:19.988Z,100919.25
2022-11-15T02:45:25.766Z,100921.05
2022-11-15T02:46:59.879Z,100917.56
2022-11-15T02:48:05.055Z,100918.37
2022-11-15T02:49:07.138Z,100908.81
2022-11-15T02:50:14.959Z,100907.06
2022-11-15T02:51:17.876Z,100911.39
2022-11-15T02:52:23.209Z,100912.28
2022-11-15T02:53:27.523Z,100911.41
2022-11-15T02:54:32.152Z,100909.66
2022-11-15T02:55:41.022Z,100909.64
2022-11-15T02:56:46.052Z,100910.52
2022-11-15T02:58:02.123Z,100913.18
2022-11-15T02:59:13.715Z,100902.62
2022-11-15T03:00:19.862Z,100907.11
2022-11-15T03:01:59.652Z,100906.20
2022-11-15T03:03:33.408Z,100906.20
2022-11-15T03:04:39.438Z,100899.25
2022-11-15T03:06:00.789Z,100900.96
2022-11-15T03:08:17.942Z,100892.91
2022-11-15T03:09:36.385Z,100889.61
2022-11-15T03:11:03.513Z,100881.75
2022-11-15T03:12:26.305Z,100887.80
2022-11-15T03:13:32.428Z,100880.02
2022-11-15T03:14:59.823Z,100882.69
2022-11-15T03:16:05.793Z,100875.69
2022-11-15T03:17:20.479Z,100883.54
2022-11-15T03:18:38.195Z,100880.09
2022-11-15T03:19:59.261Z,100875.62
2022-11-15T03:21:05.265Z,100870.40
2022-11-15T03:22:10.738Z,100868.70
2022-11-15T03:23:13.932Z,100867.83
2022-11-15T03:24:23.279Z,100873.92
2022-11-15T03:25:26.078Z,100867.87
2022-11-15T03:26:30.661Z,100873.89
2022-11-15T03:27:39.224Z,100870.47
2022-11-15T03:28:45.049Z,100877.37
2022-11-15T03:29:50.938Z,100874.85
2022-11-15T03:30:55.661Z,100871.28
2022-11-15T03:32:01.503Z,100872.06
2022-11-15T03:33:05.534Z,100866.02
2022-11-15T03:34:12.389Z,100871.23
2022-11-15T03:35:18.150Z,100873.02
2022-11-15T03:36:24.302Z,100870.42
2022-11-15T03:37:48.485Z,100865.20
2022-11-15T03:38:54.398Z,100861.73
2022-11-15T03:39:57.069Z,100858.30
2022-11-15T03:41:02.507Z,100855.56
2022-11-15T03:42:20.213Z,100852.95
2022-11-15T03:44:54.017Z,100847.53
2022-11-15T03:46:03.318Z,100846.02
2022-11-15T03:47:28.146Z,100855.56
2022-11-15T03:48:34.014Z,100838.11
2022-11-15T03:49:40.180Z,100833.77
2022-11-15T03:50:45.065Z,100838.98
2022-11-15T03:51:47.479Z,100847.66
2022-11-15T03:52:51.945Z,100838.93
2022-11-15T03:53:54.299Z,100836.38
2022-11-15T03:54:58.815Z,100836.36
2022-11-15T03:56:01.075Z,100839.80
2022-11-15T03:57:04.075Z,100832.78
2022-11-15T03:58:06.687Z,100828.52
2022-11-15T03:59:09.392Z,100824.09
2022-11-15T04:00:13.492Z,100831.21
2022-11-15T04:01:16.495Z,100828.52
2022-11-15T04:02:19.603Z,100820.59
2022-11-15T04:03:21.668Z,100835.94
2022-11-15T04:04:25.201Z,100826.20
2022-11-15T04:05:27.383Z,100823.45
2022-11-15T04:06:29.402Z,100826.87
2022-11-15T04:07:31.921Z,100828.81
2022-11-15T04:08:34.147Z,100836.53
2022-11-15T04:09:37.520Z,100835.57
2022-11-15T04:10:39.935Z,100819.76
2022-11-15T04:11:41.948Z,100824.09
2022-11-15T04:12:45.798Z,100825.84
2022-11-15T04:13:48.048Z,100831.08
2022-11-15T04:14:50.104Z,100826.71
2022-11-15T04:15:52.077Z,100824.14
2022-11-15T04:16:54.269Z,100823.17
2022-11-15T04:17:57.653Z,100822.26
2022-11-15T04:18:59.848Z,100821.43
2022-11-15T04:20:05.077Z,100820.00
2022-11-15T04:21:08.712Z,100820.96
2022-11-15T04:22:10.824Z,100819.00
2022-11-15T04:23:16.736Z,100812.86
2022-11-15T04:24:18.957Z,100813.62
2022-11-15T04:25:24.038Z,100813.59
2022-11-15T04:26:25.672Z,100812.72
2022-11-15T04:27:27.692Z,100806.59
2022-11-15T04:28:30.038Z,100805.73
2022-11-15T04:29:32.264Z,100808.38
2022-11-15T04:30:34.595Z,100808.42
2022-11-15T04:31:36.627Z,100802.31
2022-11-15T04:32:38.848Z,100806.59
2022-11-15T04:33:41.088Z,100800.52
2022-11-15T04:34:43.678Z,100790.88
2022-11-15T04:35:45.920Z,100798.73
2022-11-15T04:36:49.666Z,100797.38
2022-11-15T04:37:53.705Z,100798.91
2022-11-15T04:38:57.749Z,100801.50
2022-11-15T04:40:00.275Z,100796.21
2022-11-15T04:41:03.557Z,100793.57
2022-11-15T04:42:05.843Z,100800.48
2022-11-15T04:43:07.781Z,100796.30
2022-11-15T04:44:10.557Z,100797.91
2022-11-15T04:45:13.295Z,100796.06
2022-11-15T04:46:15.614Z,100798.89
2022-11-15T04:47:18.964Z,100801.45
2022-11-15T04:48:22.317Z,100784.61
2022-11-15T04:49:24.424Z,100786.42
2022-11-15T04:50:26.491Z,100786.92
2022-11-15T04:51:28.354Z,100789.72
2022-11-15T04:52:30.327Z,100790.44
2022-11-15T04:53:32.558Z,100787.67
2022-11-15T04:54:34.854Z,100784.94
2022-11-15T04:55:36.704Z,100784.03
2022-11-15T04:56:39.674Z,100787.48
2022-11-15T04:57:41.642Z,100787.67
2022-11-15T04:58:43.570Z,100776.44
2022-11-15T04:59:45.944Z,100782.38
2022-11-15T05:00:48.800Z,100781.58
2022-11-15T05:01:51.041Z,100784.27
2022-11-15T05:02:53.040Z,100778.03
2022-11-15T05:03:55.694Z,100777.20
2022-11-15T05:04:57.618Z,100773.75
2022-11-15T05:05:59.686Z,100764.33
2022-11-15T05:07:01.932Z,100777.09
2022-11-15T05:08:04.737Z,100768.66
2022-11-15T05:09:07.141Z,100776.45
2022-11-15T05:10:10.185Z,100767.03
2022-11-15T05:11:12.132Z,100770.32
2022-11-15T05:12:14.165Z,100772.04
2022-11-15T05:13:16.050Z,100768.52
2022-11-15T05:14:18.114Z,100778.94
2022-11-15T05:15:19.985Z,100765.16
2022-11-15T05:16:23.001Z,100775.39
2022-11-15T05:17:24.990Z,100771.20
2022-11-15T05:18:27.508Z,100763.46
2022-11-15T05:19:29.563Z,100759.89
2022-11-15T05:20:31.696Z,100765.23
2022-11-15T05:21:34.858Z,100767.75
2022-11-15T05:22:36.934Z,100769.53
2022-11-15T05:23:40.107Z,100764.12
2022-11-15T05:24:42.034Z,100778.94
2022-11-15T05:25:43.923Z,100768.41
2022-11-15T05:26:48.851Z,100763.33
2022-11-15T05:27:51.614Z,100763.33
2022-11-15T05:28:55.454Z,100765.11
2022-11-15T05:29:57.881Z,100761.48
2022-11-15T05:31:08.916Z,100764.33
2022-11-15T05:32:12.359Z,100760.15
2022-11-15T05:33:15.005Z,100760.06
2022-11-15T05:34:16.887Z,100763.63
2022-11-15T05:35:22.716Z,100762.77
2022-11-15T05:36:31.964Z,100762.70
2022-11-15T05:37:34.039Z,100767.03
2022-11-15T05:38:36.281Z,100755.80
2022-11-15T05:39:38.536Z,100757.44
2022-11-15T05:40:41.208Z,100758.39
2022-11-15T05:41:46.912Z,100756.52
2022-11-15T05:42:49.108Z,100748.83
2022-11-15T05:43:52.903Z,100748.02
2022-11-15T05:44:55.196Z,100749.64
2022-11-15T05:45:59.374Z,100754.06
2022-11-15T05:47:04.885Z,100742.70
2022-11-15T05:48:11.199Z,100740.95
2022-11-15T05:49:17.039Z,100751.59
2022-11-15T05:50:20.111Z,100671.88
2022-11-15T05:51:23.136Z,100737.55
2022-11-15T05:52:28.840Z,100746.05
2022-11-15T05:53:32.540Z,100744.16
2022-11-15T05:54:36.859Z,100737.44
2022-11-15T05:55:40.162Z,100740.77
2022-11-15T05:56:44.716Z,100737.12
2022-11-15T05:57:49.286Z,100730.34
2022-11-15T05:58:59.070Z,100741.55
2022-11-15T05:59:58.846Z,100731.88
2022-11-15T06:01:01.652Z,100734.64
2022-11-15T06:02:04.759Z,100736.14
2022-11-15T06:03:06.800Z,100732.80
2022-11-15T06:04:09.018Z,100725.80
2022-11-15T06:05:11.579Z,100727.80
2022-11-15T06:06:16.503Z,100727.82
2022-11-15T06:07:18.135Z,100719.90
2022-11-15T06:08:21.464Z,100725.81
2022-11-15T06:09:23.949Z,100724.78
2022-11-15T06:10:26.569Z,100727.40
2022-11-15T06:11:28.550Z,100725.84
2022-11-15T06:12:30.509Z,100729.27
2022-11-15T06:13:34.298Z,100725.84
2022-11-15T06:14:36.417Z,100725.74
2022-11-15T06:15:38.292Z,100726.52
2022-11-15T06:16:40.246Z,100723.95
2022-11-15T06:17:42.130Z,100722.22
2022-11-15T06:18:45.054Z,100721.38
2022-11-15T06:19:46.940Z,100726.52
2022-11-15T06:20:48.938Z,100723.95
2022-11-15T06:21:50.817Z,100725.59
2022-11-15T06:23:01.947Z,100725.67
2022-11-15T06:24:05.610Z,100722.84
2022-11-15T06:25:07.754Z,100729.97
2022-11-15T06:26:10.145Z,100722.16
2022-11-15T06:27:12.503Z,100722.03
2022-11-15T06:28:14.409Z,100720.98
2022-11-15T06:29:16.423Z,100718.36
2022-11-15T06:30:27.370Z,100713.03
2022-11-15T06:31:34.910Z,100718.59
2022-11-15T06:32:36.806Z,100720.89
2022-11-15T06:33:39.546Z,100714.69
2022-11-15T06:34:41.790Z,100717.28
2022-11-15T06:35:43.671Z,100718.44
2022-11-15T06:36:45.774Z,100717.52
2022-11-15T06:37:47.673Z,100716.62
2022-11-15T06:38:49.545Z,100713.95
2022-11-15T06:39:51.545Z,100719.55
2022-11-15T06:40:54.784Z,100717.55
2022-11-15T06:41:56.798Z,100712.31
2022-11-15T06:42:59.972Z,100721.34
2022-11-15T06:44:03.043Z,100723.83
2022-11-15T06:45:06.317Z,100692.41
2022-11-15T06:46:09.039Z,100708.66
2022-11-15T06:47:10.906Z,100716.41
2022-11-15T06:48:12.767Z,100718.97
2022-11-15T06:49:14.731Z,100714.55
2022-11-15T06:50:17.542Z,100718.33
2022-11-15T06:51:20.228Z,100710.77
2022-11-15T06:52:23.287Z,100714.87
2022-11-15T06:53:27.432Z,100728.27
2022-11-15T06:54:29.485Z,100711.59
2022-11-15T06:55:31.354Z,100716.67
2022-11-15T06:56:34.973Z,100706.91
2022-11-15T06:57:37.254Z,100707.94
2022-11-15T06:58:39.136Z,100708.92
2022-11-15T06:59:41.049Z,100703.68
2022-11-15T07:00:43.730Z,100703.83
2022-11-15T07:01:45.670Z,100700.95
2022-11-15T07:02:50.492Z,100710.50
2022-11-15T07:03:52.434Z,100701.63
2022-11-15T07:04:54.498Z,100708.59
2022-11-15T07:06:04.239Z,100701.67
2022-11-15T07:07:02.857Z,100700.98
2022-11-15T07:08:04.746Z,100702.83
2022-11-15T07:09:06.619Z,100701.89
2022-11-15T07:10:09.526Z,100698.28
2022-11-15T07:11:11.418Z,100700.18
2022-11-15T07:12:13.791Z,100702.80
2022-11-15T07:13:15.867Z,100697.43
2022-11-15T07:14:17.865Z,100705.31
2022-11-15T07:15:21.667Z,100706.14
2022-11-15T07:16:23.994Z,100697.52
2022-11-15T07:17:27.254Z,100696.55
2022-11-15T07:18:29.874Z,100702.03
2022-11-15T07:19:32.140Z,100699.33
2022-11-15T07:20:34.824Z,100706.17
2022-11-15T07:21:37.468Z,100698.50
2022-11-15T07:23:51.776Z,100693.16
2022-11-15T07:24:53.650Z,100696.68
2022-11-15T07:26:00.034Z,100696.47
2022-11-15T07:27:02.455Z,100695.83
2022-11-15T07:28:04.659Z,100691.25
2022-11-15T07:29:07.659Z,100692.45
2022-11-15T07:30:11.438Z,100689.81
2022-11-15T07:31:13.846Z,100688.08
2022-11-15T07:32:17.045Z,100688.02
2022-11-15T07:33:18.956Z,100680.99
2022-11-15T07:34:20.861Z,100680.72
2022-11-15T07:35:26.239Z,100682.38
2022-11-15T07:36:28.282Z,100678.81
2022-11-15T07:37:30.863Z,100678.70
2022-11-15T07:38:42.206Z,100679.87
2022-11-15T07:39:39.708Z,100680.89
2022-11-15T07:40:41.877Z,100672.78
2022-11-15T07:41:43.765Z,100675.28
2022-11-15T07:42:45.639Z,100664.86
2022-11-15T07:43:54.748Z,100668.34
2022-11-15T07:44:57.714Z,100664.20
2022-11-15T07:46:02.559Z,100665.80
2022-11-15T07:47:04.740Z,100670.47
2022-11-15T07:48:06.618Z,100672.01
2022-11-15T07:49:09.334Z,100666.00
2022-11-15T07:50:11.634Z,100666.80
2022-11-15T07:51:15.279Z,100661.45
2022-11-15T07:52:17.986Z,100660.82
2022-11-15T07:53:19.846Z,100659.82
2022-11-15T07:54:21.783Z,100651.25
2022-11-15T07:55:25.251Z,100656.21
2022-11-15T07:56:27.637Z,100646.38
2022-11-15T07:57:30.339Z,100654.47
2022-11-15T07:58:35.405Z,100650.14
2022-11-15T07:59:37.472Z,100648.23
2022-11-15T08:00:40.464Z,100643.99
2022-11-15T08:01:42.632Z,100641.46
2022-11-15T08:02:46.274Z,100644.67
2022-11-15T08:03:48.546Z,100638.11
2022-11-15T08:04:50.620Z,100638.81
2022-11-15T08:05:52.698Z,100636.95
2022-11-15T08:06:55.969Z,100637.08
2022-11-15T08:07:59.536Z,100640.72
2022-11-15T08:09:01.831Z,100631.66
2022-11-15T08:10:06.208Z,100631.80
2022-11-15T08:11:08.119Z,100629.95
2022-11-15T08:12:09.991Z,100629.19
2022-11-15T08:13:13.288Z,100624.56
2022-11-15T08:14:15.473Z,100624.38
2022-11-15T08:15:17.464Z,100624.33
2022-11-15T08:16:19.548Z,100619.27
2022-11-15T08:17:22.224Z,100621.64
2022-11-15T08:18:25.425Z,100615.27
2022-11-15T08:19:27.910Z,100618.59
2022-11-15T08:20:31.022Z,100621.86
2022-11-15T08:21:33.005Z,100614.60
2022-11-15T08:22:34.871Z,100617.13
2022-11-15T08:23:37.853Z,100619.84
2022-11-15T08:24:40.071Z,100616.31
2022-11-15T08:25:42.111Z,100613.53
2022-11-15T08:26:44.095Z,100609.48
2022-11-15T08:27:46.156Z,100610.28
2022-11-15T08:28:48.123Z,100609.48
2022-11-15T08:29:50.212Z,100611.31
2022-11-15T08:30:52.422Z,100614.85
2022-11-15T08:31:56.049Z,100607.84
2022-11-15T08:32:58.805Z,100609.45
2022-11-15T08:34:01.292Z,100617.03
2022-11-15T08:35:04.222Z,100602.13
2022-11-15T08:36:11.918Z,100611.47
2022-11-15T08:37:13.942Z,100611.47
2022-11-15T08:38:16.321Z,100607.72
2022-11-15T08:39:18.236Z,100606.11
2022-11-15T08:40:21.048Z,100605.09
2022-11-15T08:41:32.341Z,100603.23
2022-11-15T08:42:34.370Z,100605.03
2022-11-15T08:43:37.338Z,100610.34
2022-11-15T08:44:40.648Z,100602.13
2022-11-15T08:45:42.802Z,100604.09
2022-11-15T08:46:46.962Z,100608.54
2022-11-15T08:47:53.923Z,100602.75
2022-11-15T08:48:53.261Z,100581.07
2022-11-15T08:49:55.360Z,100606.64
2022-11-15T08:50:57.643Z,100604.31
2022-11-15T08:51:59.614Z,100607.63
2022-11-15T08:53:08.578Z,100606.08
2022-11-15T08:54:10.612Z,100595.53
2022-11-15T08:55:16.867Z,100596.98
2022-11-15T08:56:19.208Z,100598.84
2022-11-15T08:57:22.117Z,100590.04
2022-11-15T08:58:24.017Z,100580.73
2022-11-15T08:59:26.366Z,100591.08
2022-11-15T09:00:28.472Z,100591.84
2022-11-15T09:01:30.496Z,100590.13
2022-11-15T09:02:33.917Z,100587.52
2022-11-15T09:03:35.792Z,100582.27
2022-11-15T09:04:37.693Z,100583.19
2022-11-15T09:05:39.963Z,100589.69
2022-11-15T09:06:43.490Z,100585.20
2022-11-15T09:07:45.630Z,100592.22
2022-11-15T09:08:48.739Z,100578.96
2022-11-15T09:09:51.325Z,100589.31
2022-11-15T09:10:53.298Z,100581.20
2022-11-15T09:12:01.061Z,100584.92
2022-11-15T09:12:59.070Z,100575.52
2022-11-15T09:14:01.733Z,100577.03
2022-11-15T09:15:05.401Z,100575.23
2022-11-15T09:16:07.892Z,100568.35
2022-11-15T09:17:10.500Z,100574.98
2022-11-15T09:18:12.577Z,100565.41
2022-11-15T09:19:14.442Z,100567.09
2022-11-15T09:20:17.531Z,100563.49
2022-11-15T09:21:20.144Z,100564.53
2022-11-15T09:22:22.051Z,100573.09
2022-11-15T09:23:24.893Z,100563.62
2022-11-15T09:24:26.802Z,100560.78
2022-11-15T09:25:29.870Z,100555.00
2022-11-15T09:26:31.863Z,100557.46
2022-11-15T09:27:34.250Z,100556.33
2022-11-15T09:28:38.073Z,100555.50
2022-11-15T09:29:40.127Z,100544.93
2022-11-15T09:30:42.239Z,100540.08
2022-11-15T09:31:44.248Z,100551.44
2022-11-15T09:32:46.114Z,100544.14
2022-11-15T09:33:48.007Z,100548.56
2022-11-15T09:34:50.945Z,100543.23
2022-11-15T09:35:53.285Z,100535.30
2022-11-15T09:36:55.388Z,100543.06
2022-11-15T09:37:58.509Z,100537.76
2022-11-15T09:39:00.416Z,100540.48
2022-11-15T09:40:02.817Z,100530.75
2022-11-15T09:41:14.773Z,100525.64
2022-11-15T09:42:46.847Z,100526.91
2022-11-15T09:44:07.367Z,100523.12
2022-11-15T09:47:01.122Z,100514.27
2022-11-15T09:48:21.510Z,100525.30
2022-11-15T09:49:24.089Z,100520.19
2022-11-15T09:50:33.311Z,100511.33
2022-11-15T09:51:38.854Z,100508.93
2022-11-15T09:52:44.577Z,100518.86
2022-11-15T09:54:45.626Z,100509.72
2022-11-15T09:55:10.132Z,100505.36
2022-11-15T09:56:22.601Z,100504.28
2022-11-15T09:57:29.356Z,100500.48
2022-11-15T09:58:51.601Z,100501.64
2022-11-15T10:00:12.273Z,100497.44
2022-11-15T10:01:07.715Z,100495.08
2022-11-15T10:02:16.486Z,100499.73
2022-11-15T10:03:37.380Z,100492.53
2022-11-15T10:04:40.034Z,100493.95
2022-11-15T10:05:45.580Z,100495.48
2022-11-15T10:07:00.612Z,100486.08
2022-11-15T10:08:19.004Z,100488.83
2022-11-15T10:09:24.727Z,100491.98
2022-11-15T10:10:43.244Z,100480.41
2022-11-15T10:11:45.279Z,100480.28
2022-11-15T10:12:50.760Z,100476.09
2022-11-15T10:13:56.106Z,100480.38
2022-11-15T10:15:08.100Z,100480.92
2022-11-15T10:16:30.013Z,100477.38
2022-11-15T10:17:35.774Z,100478.09
2022-11-15T10:18:50.255Z,100469.12
2022-11-15T10:20:14.420Z,100473.34
2022-11-15T10:21:20.111Z,100471.94
2022-11-15T10:22:41.239Z,100476.02
2022-11-15T10:23:43.783Z,100475.08
2022-11-15T10:24:46.567Z,100475.78
2022-11-15T10:26:03.701Z,100473.09
2022-11-15T10:27:06.237Z,100475.99
2022-11-15T10:28:31.003Z,100471.64
2022-11-15T10:29:33.340Z,100463.60
2022-11-15T10:30:39.306Z,100456.77
2022-11-15T10:31:43.736Z,100460.41
2022-11-15T10:32:46.952Z,100457.07
2022-11-15T10:33:49.674Z,100448.16
2022-11-15T10:34:51.809Z,100443.39
2022-11-15T10:36:10.596Z,100443.45
2022-11-15T10:37:12.518Z,100443.84
2022-11-15T10:38:15.958Z,100435.56
2022-11-15T10:39:17.884Z,100430.77
2022-11-15T10:40:24.737Z,100431.84
2022-11-15T10:41:30.718Z,100419.33
2022-11-15T10:42:32.619Z,100420.06
2022-11-15T10:43:35.647Z,100423.17
2022-11-15T10:44:41.675Z,100422.88
2022-11-15T10:45:45.036Z,100421.47
2022-11-15T10:47:00.393Z,100418.98
2022-11-15T10:48:23.853Z,100406.48
2022-11-15T10:49:28.985Z,100412.46
2022-11-15T10:50:32.709Z,100410.42
2022-11-15T10:51:40.092Z,100400.98
2022-11-15T10:52:45.797Z,100400.24
2022-11-15T10:53:50.861Z,100408.25
2022-11-15T10:54:56.676Z,100402.79
2022-11-15T10:56:02.361Z,100401.05
2022-11-15T10:57:08.215Z,100392.19
2022-11-15T10:59:57.828Z,100378.05
2022-11-15T11:01:11.819Z,100375.46
2022-11-15T11:02:33.085Z,100382.89
2022-11-15T11:03:38.682Z,100382.05
2022-11-15T11:04:51.973Z,100378.23
2022-11-15T11:06:10.582Z,100374.54
2022-11-15T11:08:26.179Z,100369.88
2022-11-15T11:09:34.333Z,100372.95
2022-11-15T11:10:51.381Z,100365.75
2022-11-15T11:11:49.930Z,100368.05
2022-11-15T11:12:53.214Z,100361.81
2022-11-15T11:13:57.485Z,100361.59
2022-11-15T11:15:02.883Z,100361.35
2022-11-15T11:16:38.783Z,100355.87
2022-11-15T11:17:51.558Z,100355.95
2022-11-15T11:19:29.753Z,100354.17
2022-11-15T11:20:41.703Z,100358.16
2022-11-15T11:21:51.537Z,100353.48
2022-11-15T11:23:15.113Z,100349.24
2022-11-15T11:24:37.034Z,100345.70
2022-11-15T11:26:05.425Z,100336.87
2022-11-15T11:27:11.156Z,100328.08
2022-11-15T11:28:51.967Z,100332.23
2022-11-15T11:30:09.484Z,100329.65
2022-11-15T11:31:24.675Z,100331.10
2022-11-15T11:32:33.619Z,100332.27
2022-11-15T11:33:45.077Z,100327.52
2022-11-15T11:34:58.545Z,100323.19
2022-11-15T11:36:27.092Z,100321.14
2022-11-15T11:37:47.927Z,100315.73
2022-11-15T11:38:59.818Z,100319.84
2022-11-15T11:40:20.522Z,100303.09
2022-11-15T11:41:47.537Z,100308.92
2022-11-15T11:42:56.311Z,100301.53
2022-11-15T11:44:31.338Z,100309.36
2022-11-15T11:45:47.206Z,100304.36
2022-11-15T11:47:11.596Z,100300.80
2022-11-15T11:48:18.362Z,100300.55
2022-11-15T11:49:48.285Z,100295.02
2022-11-15T11:50:50.939Z,100298.73
2022-11-15T11:52:05.627Z,100295.85
2022-11-15T11:53:31.353Z,100299.83
2022-11-15T11:54:37.349Z,100289.89
2022-11-15T11:55:52.581Z,100294.09
2022-11-15T11:56:56.016Z,100285.37
2022-11-15T11:58:18.659Z,100278.22
2022-11-15T11:59:42.030Z,100282.61
2022-11-15T12:02:00.096Z,100277.87
2022-11-15T12:03:18.106Z,100275.46
2022-11-15T12:04:39.938Z,100273.60
2022-11-15T12:05:43.574Z,100268.25
2022-11-15T12:06:55.637Z,100266.47
2022-11-15T12:09:15.642Z,100266.67
2022-11-15T12:10:30.845Z,100264.34
2022-11-15T12:11:55.809Z,100263.33
2022-11-15T12:13:10.750Z,100254.44
2022-11-15T12:14:19.445Z,100258.66
2022-11-15T12:15:29.096Z,100256.47
2022-11-15T12:16:33.707Z,100255.93
2022-11-15T12:17:37.334Z,100253.13
2022-11-15T12:18:42.268Z,100249.41
2022-11-15T12:19:47.912Z,100239.77
2022-11-15T12:20:56.621Z,100252.75
2022-11-15T12:22:11.125Z,100247.59
2022-11-15T12:23:19.638Z,100247.18
2022-11-15T12:24:34.541Z,100236.25
2022-11-15T12:25:54.813Z,100229.09
2022-11-15T12:27:09.828Z,100236.87
2022-11-15T12:29:06.026Z,100231.58
2022-11-15T12:29:52.666Z,100236.83
2022-11-15T12:31:04.300Z,100228.02
2022-11-15T12:33:34.638Z,100221.75
2022-11-15T12:34:40.296Z,100214.11
2022-11-15T12:35:43.337Z,100220.14
2022-11-15T12:36:46.398Z,100210.50
2022-11-15T12:37:51.138Z,100215.70
2022-11-15T12:39:05.724Z,100209.44
2022-11-15T12:40:28.890Z,100208.81
2022-11-15T12:41:40.739Z,100210.55
2022-11-15T12:43:05.053Z,100210.36
2022-11-15T12:44:13.956Z,100207.73
2022-11-15T12:45:31.770Z,100205.34
2022-11-15T12:46:43.773Z,100200.05
2022-11-15T12:47:45.680Z,100205.20
2022-11-15T12:48:58.711Z,100203.34
2022-11-15T12:50:00.614Z,100201.52
2022-11-15T12:51:02.943Z,100204.09